Zawiyat Shammas, Egypt
Current Conditions -  °F | °C
As of 3:00 PM on Monday 22 Dec 2014 (Local Time) from HEMM Reporting Station
Scattered Clouds Scattered Clouds  
Wind Chill: 64°   Ceiling: Unl
Heat Index: 64°   Visibility: 6mi
Dew Point: 52°   Wind: 13mph
Humidity: 64%   Direction: 10°N
Pressure: 30.18"   Gusts: NA
Location:  31.52°N, 26.4°E
Report Text: HEMM 221300Z 01011KT 9999 SCT020 18/11 Q1022 NOSIG
Loading
Personal Weather Stations






























Interactive Weather Map New forecast layout! Learn more

10-Day Weather Forecast

Advertisements
Track Severe Weather on mobile